Time;durP1;ratioP1;P1;durP2;ratioP2;P2;SDS_P1;SDS_P2;PMS_P1;PMS_P2;Temp;Humidity;BMP_temperature;BMP_pressure;BME280_temperature;BME280_humidity;BME280_pressure;Samples;Min_cycle;Max_cycle;Signal;HPM_P1;HPM_P2
2023/07/06 00:00:47;;;;;;;6.97;3.28;;;15.90;70.80;;;14.84;89.03;96183.31;4999491;28;20025;-64
2023/07/06 00:03:14;;;;;;;3.50;2.75;;;16.00;71.10;;;14.83;90.02;96181.69;5015651;28;20040;-64
2023/07/06 00:05:45;;;;;;;5.00;3.10;;;15.90;71.30;;;14.82;89.92;96190.69;5031542;28;20045;-65
2023/07/06 00:08:14;;;;;;;4.63;2.87;;;16.00;70.90;;;14.82;89.28;96195.97;5014862;28;20040;-64
2023/07/06 00:10:42;;;;;;;4.82;3.22;;;16.00;70.50;;;14.82;89.80;96188.03;5031812;28;20036;-64
2023/07/06 00:13:08;;;;;;;5.30;3.20;;;15.90;70.30;;;14.83;88.46;96192.28;4996180;28;20036;-65
2023/07/06 00:15:34;;;;;;;5.43;2.85;;;16.00;70.10;;;14.82;88.73;96190.69;5013762;28;20021;-64
2023/07/06 00:18:03;;;;;;;5.13;2.95;;;16.00;69.90;;;14.85;89.36;96195.53;4981411;28;20028;-65
2023/07/06 00:20:32;;;;;;;5.32;3.05;;;16.00;70.30;;;14.83;88.33;96187.81;5012732;28;20025;-64
2023/07/06 00:22:59;;;;;;;5.60;3.08;;;16.00;70.20;;;14.85;88.44;96195.53;5014416;28;20108;-65
2023/07/06 00:25:28;;;;;;;3.97;2.80;;;16.00;70.00;;;14.85;88.57;96198.19;5014582;28;20033;-64
2023/07/06 00:27:54;;;;;;;7.13;3.38;;;15.90;69.90;;;14.85;88.79;96195.53;5012582;28;20033;-64
2023/07/06 00:30:30;;;;;;;3.67;2.92;;;16.00;70.30;;;14.84;88.67;96201.88;5012769;28;20025;-64
2023/07/06 00:32:57;;;;;;;6.90;3.20;;;16.00;70.50;;;14.83;89.69;96195.75;5028735;28;20029;-65
2023/07/06 00:35:24;;;;;;;4.97;3.22;;;16.00;70.70;;;14.83;89.47;96190.47;5012328;28;20508;-65
2023/07/06 00:37:51;;;;;;;4.88;3.00;;;16.00;70.90;;;14.82;89.30;96191.47;4996060;28;20064;-65
2023/07/06 00:40:17;;;;;;;5.75;3.13;;;16.00;70.90;;;14.84;89.73;96193.91;5014224;28;20457;-65
2023/07/06 00:42:43;;;;;;;4.68;3.38;;;16.00;71.10;;;14.85;91.02;96195.53;5021961;28;20036;-65
2023/07/06 00:45:10;;;;;;;6.45;3.80;;;16.10;71.00;;;14.86;90.34;96181.28;5021215;28;20033;-64
2023/07/06 00:47:51;;;;;;;4.35;3.13;;;16.10;70.90;;;14.88;91.92;96190.63;5001692;28;20076;-64
2023/07/06 00:50:20;;;;;;;5.50;3.28;;;16.10;70.90;;;14.89;90.17;96186.13;5019628;28;20021;-64
2023/07/06 00:52:52;;;;;;;8.15;3.30;;;16.10;70.70;;;14.88;90.65;96176.56;5018637;28;20029;-64
2023/07/06 00:55:20;;;;;;;5.47;3.08;;;16.10;70.70;;;14.89;90.24;96167.59;5003623;28;20025;-65
2023/07/06 00:57:48;;;;;;;5.65;3.05;;;16.10;70.60;;;14.90;90.76;96169.22;5018837;28;20609;-66
2023/07/06 01:00:20;;;;;;;4.82;3.22;;;16.10;70.30;;;14.90;89.97;96167.38;5001313;28;20112;-67
2023/07/06 01:02:46;;;;;;;6.32;3.25;;;16.20;70.50;;;14.92;90.53;96169.81;5007183;28;20389;-67
2023/07/06 01:05:12;;;;;;;10.27;3.45;;;16.10;70.30;;;14.93;90.41;96156.34;5018628;28;20122;-67
2023/07/06 01:07:38;;;;;;;6.68;3.40;;;16.10;70.80;;;14.94;90.16;96154.56;5022518;28;20043;-66
2023/07/06 01:10:05;;;;;;;5.15;3.40;;;16.20;70.70;;;14.95;91.48;96153.53;5020089;28;20528;-66
2023/07/06 01:12:31;;;;;;;4.32;3.25;;;16.20;70.60;;;14.97;90.05;96154.13;5018903;28;20048;-66
2023/07/06 01:14:57;;;;;;;5.28;3.20;;;16.20;70.50;;;14.96;90.08;96152.50;5033766;28;20025;-66
2023/07/06 01:17:27;;;;;;;7.68;3.60;;;16.20;70.30;;;14.98;90.37;96161.03;5019669;28;20047;-66
2023/07/06 01:20:14;;;;;;;9.18;3.53;;;16.20;70.20;;;14.98;90.46;96166.34;5004089;28;20412;-67
2023/07/06 01:23:10;;;;;;;4.55;3.40;;;16.20;70.40;;;14.95;91.57;96170.22;5051513;28;20040;-66
2023/07/06 01:26:16;;;;;;;6.72;3.20;;;16.20;70.80;;;14.96;90.94;96155.16;5019762;28;20531;-66
2023/07/06 01:28:58;;;;;;;6.28;3.10;;;16.10;70.90;;;14.92;91.15;96160.03;5031197;28;20027;-66
2023/07/06 01:31:29;;;;;;;6.38;3.65;;;16.10;71.00;;;14.91;90.88;96157.59;5034876;28;20032;-67
2023/07/06 01:34:09;;;;;;;5.68;3.45;;;16.10;71.20;;;14.91;93.27;96149.66;5053257;28;20108;-67
2023/07/06 01:36:42;;;;;;;5.85;3.17;;;16.20;71.50;;;14.87;92.96;96153.75;5031052;28;20029;-66
2023/07/06 01:39:18;;;;;;;6.13;3.40;;;16.10;71.70;;;14.84;92.66;96146.25;5020148;28;20052;-66
2023/07/06 01:41:45;;;;;;;4.93;3.42;;;16.10;72.00;;;14.82;92.99;96145.66;5035379;28;20048;-66
2023/07/06 01:44:13;;;;;;;5.07;3.53;;;16.10;72.30;;;14.80;93.72;96142.41;5020872;28;20029;-67
2023/07/06 01:46:52;;;;;;;9.07;4.00;;;16.00;72.30;;;14.78;94.05;96152.41;5037597;28;20025;-66
2023/07/06 01:49:18;;;;;;;5.47;3.38;;;15.90;72.60;;;14.72;93.41;96143.50;5017999;28;20021;-66
2023/07/06 01:51:56;;;;;;;5.25;3.88;;;15.90;72.80;;;14.68;95.28;96148.38;5035865;28;20063;-66
2023/07/06 01:54:26;;;;;;;4.57;3.70;;;15.80;73.10;;;14.64;95.40;96144.53;5016669;28;20021;-67
2023/07/06 01:57:04;;;;;;;4.97;3.47;;;15.80;73.30;;;14.61;96.83;96150.25;5034069;28;20047;-66
2023/07/06 01:59:30;;;;;;;8.50;4.47;;;15.70;73.60;;;14.57;96.25;96146.41;5017342;28;20037;-66
2023/07/06 02:02:00;;;;;;;7.20;4.00;;;15.70;73.60;;;14.55;96.79;96147.66;5014546;28;20091;-67
2023/07/06 02:04:30;;;;;;;5.65;3.90;;;15.70;73.90;;;14.50;97.24;96150.94;5017638;28;20531;-66
2023/07/06 02:07:00;;;;;;;7.20;4.22;;;15.60;74.10;;;14.44;97.80;96151.78;5026481;28;20082;-66
2023/07/06 02:09:26;;;;;;;5.75;3.90;;;15.60;74.40;;;14.40;97.75;96155.84;5033923;28;20040;-66
2023/07/06 02:11:52;;;;;;;5.18;3.80;;;15.50;74.60;;;14.35;98.28;96148.53;5033928;28;20048;-66
2023/07/06 02:14:19;;;;;;;5.47;3.58;;;15.50;74.70;;;14.31;98.41;96157.13;5034243;28;20021;-66
2023/07/06 02:16:45;;;;;;;6.20;4.35;;;15.40;74.90;;;14.27;98.54;96155.91;5034008;28;20032;-66
2023/07/06 02:19:11;;;;;;;5.97;3.65;;;15.40;75.00;;;14.22;98.37;96148.59;5033849;28;20041;-66
2023/07/06 02:21:38;;;;;;;5.03;3.90;;;15.40;75.00;;;14.19;98.80;96149.00;5033568;28;20523;-66
2023/07/06 02:24:07;;;;;;;8.95;3.88;;;15.30;75.20;;;14.15;98.99;96161.03;5032270;28;20120;-67
2023/07/06 02:26:32;;;;;;;7.78;4.00;;;15.20;75.20;;;14.12;98.66;96152.72;5017542;28;20512;-66
2023/07/06 02:28:58;;;;;;;6.25;4.30;;;15.30;75.30;;;14.05;98.75;96152.75;5033474;28;20041;-66
2023/07/06 02:31:24;;;;;;;4.97;4.13;;;15.10;75.40;;;14.01;100.00;96152.31;5032930;28;20025;-66
2023/07/06 02:33:49;;;;;;;8.45;3.97;;;15.10;75.40;;;13.98;99.44;96157.22;5033090;28;20063;-66
2023/07/06 02:36:16;;;;;;;4.80;3.80;;;15.10;75.30;;;13.93;99.87;96160.50;5014988;28;20045;-66
2023/07/06 02:38:42;;;;;;;6.50;4.18;;;15.10;75.30;;;13.87;99.77;96155.25;5017937;28;20029;-66
2023/07/06 02:41:08;;;;;;;7.28;4.18;;;15.00;75.50;;;13.80;100.00;96160.53;5032645;28;20500;-66
2023/07/06 02:43:33;;;;;;;5.43;4.03;;;14.90;75.50;;;13.77;100.00;96160.94;4998392;28;20021;-66
2023/07/06 02:45:59;;;;;;;6.25;3.75;;;14.80;75.50;;;13.74;99.80;96164.00;5032664;28;20473;-67
2023/07/06 02:48:25;;;;;;;6.82;4.05;;;14.80;75.70;;;13.70;100.00;96149.59;5015000;28;20037;-66
2023/07/06 02:50:51;;;;;;;7.35;4.00;;;14.90;75.70;;;13.66;100.00;96154.47;5013022;28;20096;-67
2023/07/06 02:53:17;;;;;;;6.38;4.03;;;14.90;75.80;;;13.64;100.00;96153.06;4996838;28;20037;-67
2023/07/06 02:55:46;;;;;;;5.93;3.70;;;14.80;76.00;;;13.61;100.00;96162.22;5032510;28;20115;-67
2023/07/06 02:58:12;;;;;;;6.57;3.95;;;14.80;76.00;;;13.58;100.00;96152.06;5015181;28;20040;-64
2023/07/06 03:00:37;;;;;;;5.35;3.95;;;14.80;76.10;;;13.56;100.00;96153.25;5011643;28;20033;-64
2023/07/06 03:03:03;;;;;;;6.18;4.45;;;14.70;76.30;;;13.53;100.00;96158.97;5013941;28;20064;-64
2023/07/06 03:05:30;;;;;;;4.78;3.75;;;14.70;76.20;;;13.50;100.00;96162.81;5013308;28;20044;-67
2023/07/06 03:07:56;;;;;;;4.70;3.65;;;14.70;76.40;;;13.47;100.00;96161.41;5017156;28;20025;-66
2023/07/06 03:10:23;;;;;;;7.30;4.45;;;14.70;76.40;;;13.45;100.00;96152.06;5033530;28;20040;-66
2023/07/06 03:12:48;;;;;;;5.30;4.10;;;14.60;76.50;;;13.40;100.00;96154.53;5016065;28;20049;-66
2023/07/06 03:15:14;;;;;;;6.75;4.50;;;14.60;76.80;;;13.36;100.00;96162.06;5015240;28;20059;-66
2023/07/06 03:17:41;;;;;;;7.45;3.88;;;14.60;76.80;;;13.33;100.00;96157.16;5009962;28;20049;-67
2023/07/06 03:20:14;;;;;;;5.70;4.22;;;14.60;76.90;;;13.31;100.00;96167.09;5012811;28;20056;-66
2023/07/06 03:22:44;;;;;;;7.43;4.70;;;14.50;77.00;;;13.28;100.00;96162.25;5013781;28;20033;-66
2023/07/06 03:25:10;;;;;;;17.15;13.93;;;14.50;77.10;;;13.27;100.00;96157.97;5012984;28;20087;-66
2023/07/06 03:27:36;;;;;;;8.55;6.57;;;14.40;77.60;;;13.24;100.00;96153.09;5014091;28;20306;-67
2023/07/06 03:30:09;;;;;;;8.85;5.40;;;14.50;77.60;;;13.21;100.00;96156.16;5031607;28;20097;-68
2023/07/06 03:32:37;;;;;;;10.27;8.27;;;14.40;77.80;;;13.16;100.00;96153.28;5002851;28;20052;-69
2023/07/06 03:35:05;;;;;;;15.15;10.85;;;14.40;77.90;;;13.13;100.00;96153.69;5011741;28;20108;-69
2023/07/06 03:37:30;;;;;;;6.30;4.30;;;14.30;78.10;;;13.10;100.00;96151.44;5014860;28;20060;-65
2023/07/06 03:39:56;;;;;;;5.03;3.20;;;14.30;78.20;;;13.05;100.00;96156.53;5012907;28;20067;-68
2023/07/06 03:42:22;;;;;;;5.30;4.05;;;14.30;78.40;;;13.04;100.00;96152.25;5012274;28;20110;-67
2023/07/06 03:44:47;;;;;;;7.65;4.30;;;14.30;78.50;;;13.05;100.00;96152.06;5027373;28;20183;-67
2023/07/06 03:47:14;;;;;;;9.55;4.00;;;14.30;78.40;;;13.06;100.00;96152.88;5009534;28;20076;-64
2023/07/06 03:49:40;;;;;;;9.65;4.38;;;14.30;78.30;;;13.03;100.00;96148.81;5029430;28;20064;-65
2023/07/06 03:52:06;;;;;;;6.15;4.38;;;14.30;78.40;;;13.02;100.00;96154.28;5011106;28;20030;-64
2023/07/06 03:54:34;;;;;;;26.38;21.25;;;14.30;78.80;;;13.01;100.00;96155.31;5013236;28;20091;-65
2023/07/06 03:57:00;;;;;;;20.98;16.95;;;14.30;79.00;;;13.02;100.00;96149.00;5009922;28;20033;-65
2023/07/06 03:59:31;;;;;;;7.80;6.60;;;14.40;79.10;;;13.05;100.00;96152.06;5029067;28;20033;-64
2023/07/06 04:01:57;;;;;;;;;;;14.40;79.00;;;13.03;100.00;96148.81;5010898;28;20041;-64
2023/07/06 04:04:28;;;;;;;7.43;5.38;;;14.40;79.10;;;13.04;100.00;96152.25;5010729;28;19924;-64
2023/07/06 04:06:56;;;;;;;;;;;14.40;79.40;;;13.05;100.00;96151.25;5030395;28;20029;-64
2023/07/06 04:09:25;;;;;;;8.82;4.43;;;14.50;79.50;;;13.04;100.00;96149.63;5013698;28;20629;-64
2023/07/06 04:11:53;;;;;;;6.45;4.93;;;14.50;79.60;;;13.07;100.00;96157.13;5013686;28;20044;-64
2023/07/06 04:14:25;;;;;;;7.82;4.82;;;14.50;79.60;;;13.10;100.00;96149.59;5005406;28;20037;-65
2023/07/06 04:16:54;;;;;;;6.10;4.75;;;14.60;79.60;;;13.17;100.00;96160.19;5028973;28;20071;-64
2023/07/06 04:19:20;;;;;;;8.32;5.10;;;14.60;79.40;;;13.21;100.00;96163.25;5012442;28;20035;-65
2023/07/06 04:21:46;;;;;;;6.18;4.50;;;14.60;79.20;;;13.23;100.00;96162.03;4997480;28;20033;-64
2023/07/06 04:24:11;;;;;;;5.78;4.43;;;14.60;79.20;;;13.26;100.00;96156.34;5012651;28;20072;-64
2023/07/06 04:26:37;;;;;;;6.30;4.60;;;14.70;79.20;;;13.29;100.00;96166.50;4995149;28;20060;-65
2023/07/06 04:29:09;;;;;;;6.10;4.32;;;14.70;79.20;;;13.31;100.00;96171.59;5028846;28;20032;-65
2023/07/06 04:31:38;;;;;;;8.35;4.82;;;14.70;79.30;;;13.35;100.00;96165.72;5014279;28;20055;-65
2023/07/06 04:34:04;;;;;;;6.28;4.93;;;14.80;79.30;;;13.38;100.00;96167.94;5046557;28;20086;-64
2023/07/06 04:36:31;;;;;;;7.60;4.63;;;14.90;79.20;;;13.44;100.00;96166.31;5031504;28;20635;-64
2023/07/06 04:38:59;;;;;;;7.63;5.03;;;15.00;79.10;;;13.52;100.00;96173.19;5013853;28;20116;-68
2023/07/06 04:41:25;;;;;;;8.98;5.03;;;15.10;79.00;;;13.57;100.00;96173.38;5011239;28;20025;-67
2023/07/06 04:43:52;;;;;;;7.18;4.43;;;15.10;78.90;;;13.63;100.00;96176.03;4992820;28;20048;-67
2023/07/06 04:46:20;;;;;;;8.80;4.95;;;15.10;79.20;;;13.68;100.00;96176.22;4993425;28;20458;-67
2023/07/06 04:48:47;;;;;;;6.63;5.35;;;15.10;79.50;;;13.72;100.00;96168.69;5005503;28;20048;-67
2023/07/06 04:51:12;;;;;;;8.27;4.72;;;15.20;79.50;;;13.77;100.00;96166.22;5028811;28;20029;-67
2023/07/06 04:53:38;;;;;;;5.65;4.55;;;15.40;79.30;;;13.84;100.00;96174.97;5012154;28;20051;-67
2023/07/06 04:56:05;;;;;;;7.60;5.00;;;15.40;79.00;;;13.90;100.00;96171.50;5009556;28;20123;-65
2023/07/06 04:58:31;;;;;;;6.18;4.72;;;15.40;78.60;;;13.95;100.00;96174.31;5009546;28;20040;-65
2023/07/06 05:00:57;;;;;;;8.05;4.68;;;15.50;78.70;;;14.02;100.00;96177.75;5023058;28;20519;-63
2023/07/06 05:03:23;;;;;;;6.22;4.68;;;15.60;78.30;;;14.09;100.00;96173.28;5006359;28;20026;-63
2023/07/06 05:05:49;;;;;;;5.55;3.95;;;15.60;78.10;;;14.14;100.00;96170.00;5024361;28;20075;-63
2023/07/06 05:08:17;;;;;;;5.32;4.25;;;15.70;78.10;;;14.22;100.00;96179.53;5012753;28;20088;-63
2023/07/06 05:10:46;;;;;;;6.97;4.35;;;15.80;78.10;;;14.28;100.00;96184.81;5012886;28;20033;-65
2023/07/06 05:13:12;;;;;;;8.88;4.43;;;15.90;78.00;;;14.34;100.00;96180.50;4994889;28;20617;-65
2023/07/06 05:15:37;;;;;;;6.30;4.38;;;15.90;77.80;;;14.40;100.00;96179.66;5010204;28;20108;-65
2023/07/06 05:18:06;;;;;;;6.10;4.15;;;16.00;77.70;;;14.46;100.00;96181.47;5005373;28;20034;-64
2023/07/06 05:20:32;;;;;;;7.47;4.00;;;16.00;77.70;;;14.51;100.00;96175.59;4991856;28;20567;-64
2023/07/06 05:22:57;;;;;;;7.18;3.97;;;16.10;77.50;;;14.53;100.00;96179.63;4993862;28;20031;-65
2023/07/06 05:25:23;;;;;;;9.23;4.63;;;16.10;77.10;;;14.57;100.00;96183.47;5023117;28;20472;-64
2023/07/06 05:27:49;;;;;;;9.90;4.80;;;16.10;77.00;;;14.63;100.00;96182.63;4986804;28;20377;-67
2023/07/06 05:30:16;;;;;;;6.38;4.50;;;16.20;76.90;;;14.68;100.00;96179.34;5007254;28;20116;-66
2023/07/06 05:32:42;;;;;;;9.88;4.88;;;16.30;76.30;;;14.74;100.00;96177.69;5009864;28;20493;-64
2023/07/06 05:35:08;;;;;;;7.22;4.20;;;16.30;75.90;;;14.81;100.00;96178.47;5023446;28;20124;-64
2023/07/06 05:37:34;;;;;;;6.85;4.30;;;16.40;75.30;;;14.86;100.00;96183.91;5005986;28;20029;-63
2023/07/06 05:40:03;;;;;;;5.70;4.13;;;16.50;75.50;;;14.93;100.00;96182.03;4994401;28;20915;-68
2023/07/06 05:42:30;;;;;;;6.37;4.07;;;16.60;75.40;;;15.01;100.00;96184.44;5016828;28;20400;-65
2023/07/06 05:44:56;;;;;;;6.70;4.13;;;16.70;75.30;;;15.12;100.00;96180.28;5004385;28;20042;-65
2023/07/06 05:47:22;;;;;;;5.70;4.22;;;16.80;75.20;;;15.24;100.00;96184.69;5012184;28;21107;-66
2023/07/06 05:49:48;;;;;;;7.32;3.90;;;17.10;75.00;;;15.36;100.00;96182.13;4995527;28;20057;-66
2023/07/06 05:52:13;;;;;;;5.00;3.90;;;17.20;74.50;;;15.50;100.00;96182.84;5007504;28;20064;-66
2023/07/06 05:54:39;;;;;;;6.85;4.50;;;17.30;73.70;;;15.60;100.00;96183.16;4996356;28;20111;-66
2023/07/06 05:57:05;;;;;;;5.70;3.92;;;17.40;72.80;;;15.70;100.00;96186.16;5029989;28;20513;-68
2023/07/06 05:59:31;;;;;;;8.88;4.30;;;17.60;72.70;;;15.83;100.00;96193.97;4992685;28;20031;-69
2023/07/06 06:01:58;;;;;;;4.45;3.63;;;17.70;72.00;;;15.95;100.00;96185.28;5011484;28;20084;-66
2023/07/06 06:04:25;;;;;;;5.70;3.88;;;17.80;71.80;;;16.09;100.00;96190.25;4995475;28;20041;-68
2023/07/06 06:06:54;;;;;;;5.45;3.70;;;18.00;71.30;;;16.23;100.00;96193.53;5029301;28;20045;-67
2023/07/06 06:09:21;;;;;;;6.93;4.25;;;18.10;70.60;;;16.37;100.00;96194.22;4995782;28;20030;-67
2023/07/06 06:11:50;;;;;;;5.93;4.00;;;18.30;70.30;;;16.48;100.00;96191.59;5012203;28;20492;-65
2023/07/06 06:14:16;;;;;;;5.20;3.60;;;18.50;69.90;;;16.63;100.00;96182.44;4980274;28;20044;-67
2023/07/06 06:16:42;;;;;;;4.43;3.58;;;18.60;68.80;;;16.79;100.00;96192.47;5009736;28;20017;-68
2023/07/06 06:19:08;;;;;;;11.65;3.67;;;18.90;68.30;;;16.96;100.00;96187.31;4997540;28;20041;-69
2023/07/06 06:21:34;;;;;;;7.10;3.60;;;19.10;68.10;;;17.18;100.00;96192.91;5012117;28;20037;-69
2023/07/06 06:24:01;;;;;;;6.45;4.00;;;19.40;67.60;;;17.42;100.00;96186.59;5015028;28;20030;-67
2023/07/06 06:26:27;;;;;;;6.63;4.07;;;19.80;66.50;;;17.65;98.39;96191.97;5015188;28;20049;-69
2023/07/06 06:28:53;;;;;;;6.32;4.07;;;20.00;65.90;;;17.91;97.10;96192.56;4980726;28;20041;-66
2023/07/06 06:31:19;;;;;;;5.00;3.55;;;20.40;64.70;;;18.15;94.40;96199.47;5007773;28;20460;-67
2023/07/06 06:33:45;;;;;;;6.47;5.13;;;20.60;62.70;;;18.39;92.23;96186.13;4995002;28;20492;-67
2023/07/06 06:36:16;;;;;;;4.50;3.20;;;20.90;61.30;;;18.65;83.52;96180.28;4994482;28;20086;-67
2023/07/06 06:38:42;;;;;;;3.95;2.95;;;21.20;56.80;;;18.91;83.44;96185.03;4993852;28;20041;-66
2023/07/06 06:41:08;;;;;;;4.35;2.88;;;21.60;54.20;;;19.19;80.78;96183.38;5009437;28;20041;-67
2023/07/06 06:43:40;;;;;;;5.15;3.35;;;21.90;53.70;;;19.49;76.53;96175.88;5014721;28;20066;-66
2023/07/06 06:46:07;;;;;;;6.13;3.10;;;22.20;54.20;;;19.75;79.67;96181.63;4993943;28;20045;-66
2023/07/06 06:48:33;;;;;;;4.60;3.33;;;22.60;53.10;;;20.02;77.41;96190.56;4994172;28;20097;-70
2023/07/06 06:51:07;;;;;;;8.63;3.42;;;22.80;52.40;;;20.29;73.33;96173.81;5012410;28;20123;-70
2023/07/06 06:53:33;;;;;;;4.65;3.00;;;23.00;51.40;;;20.53;73.59;96183.22;4993034;28;20034;-68
2023/07/06 06:56:00;;;;;;;4.68;2.97;;;23.30;50.00;;;20.75;71.08;96177.88;5007241;28;20044;-70
2023/07/06 06:58:25;;;;;;;5.80;3.25;;;23.50;48.20;;;20.96;69.35;96185.03;4991643;28;20421;-68
2023/07/06 07:00:58;;;;;;;6.32;3.28;;;23.80;47.80;;;21.17;64.70;96148.59;4997497;28;20140;-68
2023/07/06 07:03:24;;;;;;;4.93;3.03;;;24.10;47.20;;;21.38;67.84;96171.81;5007256;28;20037;-67
2023/07/06 07:06:02;;;;;;;4.70;3.20;;;24.40;46.50;;;21.61;61.40;96140.41;5010316;28;20052;-67
2023/07/06 07:08:28;;;;;;;5.70;3.10;;;24.60;45.90;;;21.76;65.25;96164.63;4996683;28;20427;-65
2023/07/06 07:10:56;;;;;;;6.13;2.63;;;24.80;45.50;;;21.96;64.38;96156.72;5007691;28;20076;-65
2023/07/06 07:13:22;;;;;;;7.38;3.33;;;25.00;45.70;;;22.13;63.40;96156.53;4972531;28;20041;-64
2023/07/06 07:15:49;;;;;;;8.73;3.63;;;25.00;45.10;;;22.31;63.21;96157.97;4994866;28;20587;-67
2023/07/06 07:18:15;;;;;;;5.65;2.83;;;25.30;44.70;;;22.49;62.13;96159.38;4991585;28;20124;-69
2023/07/06 07:20:43;;;;;;;5.18;2.63;;;25.50;43.90;;;22.68;61.34;96157.03;4985777;28;20037;-68
2023/07/06 07:23:10;;;;;;;5.72;2.70;;;25.60;43.80;;;22.81;59.53;96143.09;5017644;28;20025;-67
2023/07/06 07:25:38;;;;;;;4.13;2.78;;;25.70;42.50;;;22.96;58.38;96134.31;4997858;28;20033;-68
2023/07/06 07:28:05;;;;;;;4.25;2.47;;;25.70;42.90;;;23.06;58.12;96140.50;4996259;28;20025;-69
2023/07/06 07:30:31;;;;;;;6.03;2.90;;;25.90;41.30;;;23.17;56.19;96134.09;4998955;28;20063;-71
2023/07/06 07:32:57;;;;;;;5.57;2.95;;;26.10;40.30;;;23.32;56.25;96140.53;4996243;28;20120;-68
2023/07/06 07:35:23;;;;;;;7.13;2.45;;;26.10;41.00;;;23.37;55.17;96127.91;4993105;28;20123;-68
2023/07/06 07:37:50;;;;;;;6.78;2.67;;;26.30;39.90;;;23.48;56.04;96129.50;5014075;28;20033;-70
2023/07/06 07:40:18;;;;;;;4.05;2.03;;;26.40;40.60;;;23.62;52.64;96111.00;4988463;28;20055;-67
2023/07/06 07:42:46;;;;;;;5.32;2.17;;;26.70;36.90;;;23.70;50.71;96099.69;4978610;28;20029;-69
2023/07/06 07:45:13;;;;;;;5.85;2.50;;;26.60;36.30;;;23.85;50.78;96109.63;5006011;28;20400;-68
2023/07/06 07:47:39;;;;;;;4.60;2.15;;;27.10;36.90;;;24.11;50.65;96104.97;4993413;28;20562;-67
2023/07/06 07:50:06;;;;;;;12.10;2.72;;;27.30;36.90;;;24.29;49.17;96101.69;4982926;28;20178;-67
2023/07/06 07:52:34;;;;;;;3.83;2.10;;;27.30;35.00;;;24.40;48.74;96108.63;4996062;28;20025;-65
2023/07/06 07:55:00;;;;;;;4.00;2.30;;;27.50;36.70;;;24.61;48.23;96103.13;5009873;28;20114;-66
2023/07/06 07:57:27;;;;;;;5.18;2.50;;;27.90;35.10;;;24.76;46.62;96095.00;5003375;28;20497;-67
2023/07/06 07:59:53;;;;;;;4.05;2.20;;;27.70;34.30;;;24.89;45.95;96093.53;4992285;28;20048;-65
2023/07/06 08:02:18;;;;;;;5.25;1.98;;;28.10;33.60;;;25.11;45.04;96091.25;4970292;28;20132;-69
2023/07/06 08:04:44;;;;;;;5.20;1.92;;;28.50;33.50;;;25.35;43.91;96080.59;4994040;28;20123;-69
2023/07/06 08:07:11;;;;;;;3.40;2.10;;;28.50;32.10;;;25.53;43.50;96077.16;5007705;28;20377;-65
2023/07/06 08:09:37;;;;;;;3.45;1.73;;;28.70;32.60;;;25.72;43.23;96068.41;4992288;28;20450;-69
2023/07/06 08:12:03;;;;;;;3.85;1.70;;;28.70;31.80;;;25.77;41.63;96054.84;5022883;28;20120;-67
2023/07/06 08:14:37;;;;;;;4.88;2.00;;;28.60;30.90;;;25.98;38.84;96029.28;4976859;28;20048;-69
2023/07/06 08:17:05;;;;;;;4.28;2.00;;;29.00;31.80;;;26.11;41.78;96066.34;5005922;28;20034;-66
2023/07/06 08:19:32;;;;;;;3.85;2.15;;;29.00;32.60;;;26.23;41.66;96053.22;4992807;28;20116;-67
2023/07/06 08:21:59;;;;;;;4.30;2.10;;;29.30;31.60;;;26.31;40.83;96053.69;5010444;28;20064;-66
2023/07/06 08:24:27;;;;;;;3.88;1.90;;;29.30;31.70;;;26.53;41.08;96056.66;4977425;28;20052;-67
2023/07/06 08:26:54;;;;;;;3.90;2.00;;;29.70;31.10;;;26.73;40.50;96056.38;4986987;28;20508;-68
2023/07/06 08:29:20;;;;;;;4.25;2.13;;;30.10;31.40;;;26.91;39.77;96046.63;4995031;28;20504;-66
2023/07/06 08:31:47;;;;;;;4.57;1.90;;;30.00;30.50;;;27.14;40.35;96056.53;5006754;28;20039;-69
2023/07/06 08:34:14;;;;;;;5.13;2.20;;;30.50;31.50;;;27.33;40.72;96045.69;5006439;28;20064;-67
2023/07/06 08:36:40;;;;;;;3.15;1.88;;;30.80;30.50;;;27.62;39.21;96050.91;4984202;28;20127;-69
2023/07/06 08:39:06;;;;;;;3.42;1.92;;;31.10;29.90;;;27.94;39.35;96041.88;5006883;28;20029;-63
2023/07/06 08:41:37;;;;;;;3.33;2.10;;;31.50;29.30;;;28.25;37.91;96038.56;4994643;28;21262;-67
2023/07/06 08:44:03;;;;;;;4.95;2.22;;;31.70;29.00;;;28.54;38.35;96044.44;5006233;28;20026;-64
2023/07/06 08:46:54;;;;;;;2.88;2.17;;;32.10;28.80;;;28.90;35.42;96013.88;4995056;28;20044;-63
2023/07/06 08:49:33;;;;;;;6.28;2.35;;;32.10;28.90;;;29.13;34.74;96009.25;4998278;28;20033;-66
2023/07/06 08:52:03;;;;;;;4.63;1.92;;;32.40;28.50;;;29.28;37.79;96034.03;4989023;28;20044;-68
2023/07/06 08:54:30;;;;;;;;;;;32.50;29.40;;;29.31;35.67;96015.56;4981399;28;20091;-69
2023/07/06 08:56:57;;;;;;;4.10;2.10;;;32.30;29.40;;;29.31;38.45;96046.16;4991246;28;19936;-68
2023/07/06 08:59:43;;;;;;;4.05;2.00;;;32.00;30.50;;;29.25;36.16;96020.31;4999185;28;20025;-65
2023/07/06 09:02:25;;;;;;;5.20;2.53;;;32.10;30.40;;;29.25;35.64;96004.88;5023779;28;20033;-68
2023/07/06 09:04:53;;;;;;;4.32;2.00;;;31.90;30.10;;;29.33;37.64;96032.31;4998921;28;20067;-69
2023/07/06 09:07:34;;;;;;;2.90;1.83;;;32.20;31.00;;;29.48;36.06;96013.78;4979887;28;20059;-69
2023/07/06 09:10:00;;;;;;;3.38;2.55;;;32.70;30.20;;;29.57;37.51;96025.44;4991686;28;20048;-67
2023/07/06 09:12:31;;;;;;;5.05;1.95;;;32.90;29.50;;;29.82;36.77;96015.03;4993543;28;20037;-66
2023/07/06 09:14:59;;;;;;;6.40;2.38;;;33.40;29.70;;;29.91;36.49;96025.91;5001162;28;20029;-65
2023/07/06 09:17:26;;;;;;;5.28;2.47;;;33.10;28.20;;;30.11;36.87;96028.09;5026324;28;20029;-67
2023/07/06 09:19:53;;;;;;;4.00;2.38;;;33.50;30.10;;;30.35;36.79;96031.16;5015121;28;20040;-66
2023/07/06 09:22:22;;;;;;;3.08;2.03;;;34.00;29.50;;;30.56;36.23;96022.41;5018328;28;20303;-67
2023/07/06 09:24:49;;;;;;;6.18;2.20;;;34.20;28.60;;;30.81;36.25;96024.34;5002630;28;20060;-66
2023/07/06 09:27:27;;;;;;;3.42;2.47;;;34.50;28.60;;;31.09;34.81;96000.34;5000575;28;20037;-63
2023/07/06 09:30:02;;;;;;;4.20;2.20;;;34.70;27.80;;;31.36;33.92;95989.13;5000793;28;20475;-67
2023/07/06 09:32:32;;;;;;;3.25;2.13;;;35.00;27.30;;;31.63;35.71;96012.38;5015798;28;20033;-63
2023/07/06 09:35:04;;;;;;;3.80;2.42;;;35.40;27.60;;;31.72;33.22;95987.91;5001286;28;20031;-63
2023/07/06 09:37:30;;;;;;;6.32;2.40;;;34.80;27.70;;;31.69;34.86;96005.66;5029977;28;20041;-68
2023/07/06 09:40:05;;;;;;;20.58;2.70;;;34.90;27.90;;;31.77;32.37;95978.75;4994841;28;20037;-64
2023/07/06 09:42:32;;;;;;;5.25;2.30;;;35.10;27.20;;;31.78;33.59;96000.19;4996220;28;20109;-65
2023/07/06 09:44:58;;;;;;;4.57;2.20;;;34.40;26.90;;;31.43;32.94;95985.91;4996983;28;20131;-66
2023/07/06 09:47:24;;;;;;;3.00;2.33;;;33.70;26.90;;;31.03;34.01;95986.16;4996176;28;20044;-67
2023/07/06 09:50:00;;;;;;;5.40;2.00;;;33.30;28.70;;;30.94;32.34;95979.13;5030435;28;20025;-69
2023/07/06 09:52:26;;;;;;;4.10;2.22;;;33.50;28.20;;;31.04;34.13;95997.81;4996935;28;20025;-67
2023/07/06 09:55:24;;;;;;;4.07;2.15;;;33.80;28.90;;;30.91;33.00;95977.84;4983800;28;20072;-66
2023/07/06 09:57:50;;;;;;;4.07;2.40;;;33.70;28.70;;;30.97;34.01;95990.13;5013738;28;20033;-67
2023/07/06 10:00:22;;;;;;;6.80;2.40;;;34.50;28.10;;;31.26;33.57;95991.41;4996631;28;20094;-63
2023/07/06 10:03:15;;;;;;;3.10;1.90;;;35.10;27.10;;;31.56;33.46;95975.94;4984868;28;20662;-68
2023/07/06 10:05:56;;;;;;;4.75;2.35;;;35.30;27.60;;;31.89;32.99;95976.13;5016350;28;20072;-66
2023/07/06 10:08:36;;;;;;;3.88;2.50;;;36.00;27.30;;;32.27;32.01;95963.28;5013681;28;20034;-69
2023/07/06 10:11:13;;;;;;;3.15;2.17;;;36.50;25.40;;;32.70;31.81;95970.31;5028916;28;20040;-70
2023/07/06 10:14:04;;;;;;;5.82;2.35;;;37.30;25.10;;;33.22;31.19;95958.91;5011463;28;20121;-69
2023/07/06 10:17:04;;;;;;;3.88;2.40;;;37.90;24.40;;;33.68;29.33;95937.88;4999134;28;20087;-69
2023/07/06 10:19:49;;;;;;;3.17;2.30;;;38.30;22.80;;;33.94;29.40;95951.97;5029047;28;20148;-68
2023/07/06 10:22:30;;;;;;;3.47;2.30;;;38.50;23.50;;;34.31;28.56;95928.16;5005177;28;20043;-70
2023/07/06 10:25:18;;;;;;;3.90;2.35;;;38.30;22.30;;;34.43;28.02;95935.56;5026348;28;20047;-70